createdAt,value
2018-08-16T00:01:10.934Z,8.10
2018-08-16T00:03:39.432Z,8.60
2018-08-16T00:06:07.934Z,7.90
2018-08-16T00:08:36.414Z,8.13
2018-08-16T00:11:04.971Z,8.23
2018-08-16T00:13:33.413Z,8.30
2018-08-16T00:16:08.674Z,7.90
2018-08-16T00:18:37.142Z,8.27
2018-08-16T00:21:05.948Z,8.00
2018-08-16T00:23:34.367Z,7.93
2018-08-16T00:26:02.850Z,7.67
2018-08-16T00:28:31.338Z,7.77
2018-08-16T00:30:59.826Z,8.40
2018-08-16T00:33:28.296Z,8.23
2018-08-16T00:35:56.792Z,7.67
2018-08-16T00:38:25.270Z,7.93
2018-08-16T00:40:53.708Z,8.07
2018-08-16T00:43:22.170Z,8.30
2018-08-16T00:45:50.627Z,8.27
2018-08-16T00:48:19.084Z,7.97
2018-08-16T00:50:47.603Z,8.40
2018-08-16T00:53:16.065Z,8.47
2018-08-16T00:55:44.560Z,8.97
2018-08-16T00:58:13.080Z,8.67
2018-08-16T01:00:42.618Z,8.97
2018-08-16T01:03:11.054Z,8.20
2018-08-16T01:05:39.518Z,8.77
2018-08-16T01:08:08.026Z,8.80
2018-08-16T01:10:36.501Z,8.93
2018-08-16T01:13:04.987Z,9.27
2018-08-16T01:15:33.447Z,9.40
2018-08-16T01:18:01.956Z,9.73
2018-08-16T01:20:30.423Z,9.70
2018-08-16T01:22:58.939Z,9.80
2018-08-16T01:25:27.455Z,10.60
2018-08-16T01:27:55.948Z,10.00
2018-08-16T01:30:24.460Z,10.50
2018-08-16T01:32:52.928Z,10.13
2018-08-16T01:35:21.406Z,10.10
2018-08-16T01:37:49.840Z,10.40
2018-08-16T01:40:18.349Z,10.20
2018-08-16T01:42:46.896Z,10.00
2018-08-16T01:45:15.319Z,10.27
2018-08-16T01:47:43.813Z,10.07
2018-08-16T01:50:12.283Z,9.67
2018-08-16T01:52:40.744Z,9.70
2018-08-16T01:55:09.214Z,10.00
2018-08-16T01:57:37.633Z,9.67
2018-08-16T02:00:08.390Z,9.30
2018-08-16T02:02:36.916Z,10.00
2018-08-16T02:05:06.286Z,9.33
2018-08-16T02:07:34.772Z,9.83
2018-08-16T02:10:03.294Z,9.43
2018-08-16T02:12:31.799Z,9.93
2018-08-16T02:15:00.241Z,9.90
2018-08-16T02:17:28.726Z,10.07
2018-08-16T02:19:57.166Z,10.23
2018-08-16T02:22:25.637Z,10.33
2018-08-16T02:24:54.076Z,10.87
2018-08-16T02:27:22.512Z,11.00
2018-08-16T02:29:51.022Z,10.03
2018-08-16T02:32:19.476Z,10.70
2018-08-16T02:34:47.988Z,10.70
2018-08-16T02:37:16.462Z,11.00
2018-08-16T02:39:44.914Z,9.33
2018-08-16T02:42:13.353Z,9.97
2018-08-16T02:44:41.814Z,8.80
2018-08-16T02:47:10.275Z,10.03
2018-08-16T02:49:38.741Z,9.77
2018-08-16T02:52:07.231Z,9.50
2018-08-16T02:54:35.687Z,9.60
2018-08-16T02:57:04.171Z,10.13
2018-08-16T02:59:32.619Z,9.93
2018-08-16T03:02:01.117Z,10.97
2018-08-16T03:04:29.575Z,10.47
2018-08-16T03:06:58.045Z,9.83
2018-08-16T03:09:26.509Z,10.20
2018-08-16T03:11:54.972Z,10.20
2018-08-16T03:14:23.418Z,10.37
2018-08-16T03:16:52.009Z,10.20
2018-08-16T03:19:20.580Z,10.27
2018-08-16T03:21:50.294Z,10.13
2018-08-16T03:24:22.217Z,10.37
2018-08-16T03:26:50.674Z,11.00
2018-08-16T03:29:19.186Z,10.57
2018-08-16T03:31:47.678Z,10.57
2018-08-16T03:34:17.420Z,10.77
2018-08-16T03:36:45.868Z,11.37
2018-08-16T03:39:14.293Z,10.90
2018-08-16T03:41:42.785Z,10.53
2018-08-16T03:44:11.258Z,11.23
2018-08-16T03:46:39.723Z,11.27
2018-08-16T03:49:08.239Z,11.10
2018-08-16T03:51:36.681Z,11.10
2018-08-16T03:54:05.226Z,11.23
2018-08-16T03:56:33.739Z,11.73
2018-08-16T03:59:02.153Z,11.77
2018-08-16T04:01:30.643Z,12.27
2018-08-16T04:03:59.138Z,11.73
2018-08-16T04:06:27.593Z,11.53
2018-08-16T04:08:56.049Z,10.90
2018-08-16T04:11:24.520Z,11.90
2018-08-16T04:13:53.000Z,11.47
2018-08-16T04:16:21.429Z,11.50
2018-08-16T04:18:49.873Z,11.83
2018-08-16T04:21:18.321Z,11.60
2018-08-16T04:23:46.813Z,12.10
2018-08-16T04:26:15.276Z,11.10
2018-08-16T04:28:43.747Z,12.03
2018-08-16T04:31:12.205Z,12.03
2018-08-16T04:33:40.697Z,12.20
2018-08-16T04:36:09.211Z,12.33
2018-08-16T04:38:37.677Z,11.60
2018-08-16T04:41:06.773Z,12.20
2018-08-16T04:43:35.354Z,11.77
2018-08-16T04:46:03.851Z,11.53
2018-08-16T04:48:32.340Z,11.33
2018-08-16T04:51:00.843Z,11.70
2018-08-16T04:53:29.282Z,11.67
2018-08-16T04:55:57.729Z,11.50
2018-08-16T04:58:26.205Z,11.47
2018-08-16T05:00:54.668Z,12.50
2018-08-16T05:03:23.086Z,11.70
2018-08-16T05:05:51.556Z,11.07
2018-08-16T05:08:20.006Z,11.83
2018-08-16T05:10:48.464Z,11.53
2018-08-16T05:13:16.970Z,11.73
2018-08-16T05:15:45.434Z,10.80
2018-08-16T05:18:13.858Z,11.47
2018-08-16T05:20:42.325Z,10.63
2018-08-16T05:23:10.762Z,10.67
2018-08-16T05:25:39.216Z,10.00
2018-08-16T05:28:07.693Z,10.53
2018-08-16T05:30:36.211Z,9.93
2018-08-16T05:33:04.700Z,9.37
2018-08-16T05:35:33.257Z,9.60
2018-08-16T05:38:01.715Z,9.67
2018-08-16T05:40:30.283Z,9.07
2018-08-16T05:42:58.791Z,8.53
2018-08-16T05:45:27.235Z,8.77
2018-08-16T05:47:55.701Z,8.97
2018-08-16T05:50:24.199Z,8.53
2018-08-16T05:52:52.633Z,8.33
2018-08-16T05:55:21.109Z,8.77
2018-08-16T05:57:49.581Z,8.43
2018-08-16T06:00:18.155Z,7.80
2018-08-16T06:02:46.634Z,8.47
2018-08-16T06:05:15.131Z,7.93
2018-08-16T06:07:43.629Z,7.73
2018-08-16T06:10:12.091Z,8.20
2018-08-16T06:12:40.565Z,7.33
2018-08-16T06:15:09.908Z,7.83
2018-08-16T06:17:38.440Z,8.20
2018-08-16T06:20:09.079Z,8.30
2018-08-16T06:22:37.809Z,7.57
2018-08-16T06:25:08.023Z,7.77
2018-08-16T06:27:36.479Z,7.20
2018-08-16T06:30:08.117Z,7.33
2018-08-16T06:32:36.566Z,7.63
2018-08-16T06:35:05.563Z,7.10
2018-08-16T06:37:34.149Z,7.10
2018-08-16T06:40:02.650Z,7.30
2018-08-16T06:42:31.109Z,7.60
2018-08-16T06:44:59.567Z,7.57
2018-08-16T06:47:28.056Z,7.00
2018-08-16T06:49:56.539Z,7.67
2018-08-16T06:52:25.084Z,7.23
2018-08-16T06:54:53.536Z,7.17
2018-08-16T06:57:21.967Z,7.70
2018-08-16T06:59:50.427Z,7.90
2018-08-16T07:02:18.888Z,8.27
2018-08-16T07:04:47.362Z,7.20
2018-08-16T07:07:15.903Z,7.80
2018-08-16T07:09:44.384Z,7.20
2018-08-16T07:12:13.006Z,7.57
2018-08-16T07:14:41.416Z,7.83
2018-08-16T07:17:10.222Z,7.87
2018-08-16T07:19:38.802Z,6.80
2018-08-16T07:22:07.474Z,7.00
2018-08-16T07:24:35.949Z,6.80
2018-08-16T07:27:04.468Z,6.97
2018-08-16T07:29:32.946Z,6.97
2018-08-16T07:32:01.805Z,7.07
2018-08-16T07:34:30.232Z,6.80
2018-08-16T07:36:58.726Z,6.07
2018-08-16T07:39:27.219Z,6.80
2018-08-16T07:41:55.659Z,6.50
2018-08-16T07:44:24.144Z,6.40
2018-08-16T07:46:52.617Z,6.80
2018-08-16T07:49:21.085Z,7.27
2018-08-16T07:51:50.480Z,7.80
2018-08-16T07:54:18.934Z,6.70
2018-08-16T07:56:47.401Z,7.00
2018-08-16T07:59:15.860Z,6.97
2018-08-16T08:01:44.346Z,6.87
2018-08-16T08:04:12.853Z,6.37
2018-08-16T08:06:41.393Z,6.27
2018-08-16T08:09:10.586Z,6.07
2018-08-16T08:11:39.132Z,6.40
2018-08-16T08:14:08.038Z,6.20
2018-08-16T08:16:36.639Z,6.17
2018-08-16T08:19:05.297Z,6.80
2018-08-16T08:21:33.817Z,6.80
2018-08-16T08:24:02.374Z,6.40
2018-08-16T08:26:30.906Z,6.50
2018-08-16T08:28:59.403Z,6.63
2018-08-16T08:31:28.350Z,5.40
2018-08-16T08:33:56.913Z,6.33
2018-08-16T08:36:36.643Z,6.53
2018-08-16T08:39:07.484Z,6.50
2018-08-16T08:41:35.955Z,6.20
2018-08-16T08:44:12.893Z,6.67
2018-08-16T08:46:41.401Z,6.33
2018-08-16T08:49:10.205Z,7.50
2018-08-16T08:51:38.811Z,7.00
2018-08-16T08:54:35.127Z,7.17
2018-08-16T08:57:14.968Z,7.50
2018-08-16T08:59:43.521Z,7.57
2018-08-16T09:02:12.563Z,6.53
2018-08-16T09:04:41.098Z,7.20
2018-08-16T09:07:12.037Z,7.90
2018-08-16T09:11:48.966Z,8.07
2018-08-16T09:14:28.686Z,7.43
2018-08-16T09:16:57.187Z,7.10
2018-08-16T09:19:25.708Z,6.83
2018-08-16T09:21:54.169Z,6.33
2018-08-16T09:24:22.651Z,7.37
2018-08-16T09:26:51.122Z,7.33
2018-08-16T09:30:39.816Z,6.63
2018-08-16T09:33:19.462Z,6.30
2018-08-16T09:35:47.985Z,6.47
2018-08-16T09:38:16.466Z,6.57
2018-08-16T09:40:44.957Z,6.70
2018-08-16T09:43:13.374Z,7.07
2018-08-16T09:47:10.714Z,5.87
2018-08-16T09:49:42.552Z,6.13
2018-08-16T09:52:11.846Z,5.97
2018-08-16T09:54:40.374Z,6.30
2018-08-16T09:57:09.874Z,5.90
2018-08-16T09:59:38.516Z,6.83
2018-08-16T10:02:08.319Z,6.93
2018-08-16T10:04:36.788Z,6.10
2018-08-16T10:07:06.574Z,6.50
2018-08-16T10:09:35.092Z,6.20
2018-08-16T10:12:03.805Z,6.50
2018-08-16T10:14:32.338Z,5.57
2018-08-16T10:17:00.839Z,5.77
2018-08-16T10:19:29.957Z,6.87
2018-08-16T10:21:58.482Z,6.30
2018-08-16T10:24:26.946Z,6.67
2018-08-16T10:26:55.513Z,6.50
2018-08-16T10:29:23.920Z,6.53
2018-08-16T10:31:52.400Z,6.20
2018-08-16T10:34:23.913Z,6.60
2018-08-16T10:36:52.385Z,6.37
2018-08-16T10:39:20.862Z,6.53
2018-08-16T10:41:49.351Z,6.13
2018-08-16T10:44:17.859Z,7.03
2018-08-16T10:46:46.363Z,6.50
2018-08-16T10:49:14.858Z,7.00
2018-08-16T10:51:43.332Z,6.93
2018-08-16T10:54:11.813Z,6.50
2018-08-16T10:56:40.292Z,7.03
2018-08-16T10:59:08.832Z,7.40
2018-08-16T11:01:37.320Z,7.27
2018-08-16T11:04:05.989Z,8.03
2018-08-16T11:06:34.495Z,7.70
2018-08-16T11:09:03.422Z,7.20
2018-08-16T11:11:31.866Z,7.07
2018-08-16T11:14:00.313Z,7.00
2018-08-16T11:16:28.783Z,7.03
2018-08-16T11:18:57.291Z,6.83
2018-08-16T11:21:25.686Z,7.13
2018-08-16T11:23:54.128Z,6.90
2018-08-16T11:26:22.592Z,7.43
2018-08-16T11:28:51.069Z,8.00
2018-08-16T11:31:19.548Z,7.13
2018-08-16T11:33:48.034Z,7.87
2018-08-16T11:36:16.849Z,7.13
2018-08-16T11:38:48.190Z,7.90
2018-08-16T11:41:16.658Z,7.83
2018-08-16T11:43:45.122Z,7.87
2018-08-16T11:46:13.696Z,7.13
2018-08-16T11:48:42.163Z,7.50
2018-08-16T11:51:10.636Z,7.77
2018-08-16T11:53:39.125Z,8.07
2018-08-16T11:56:08.594Z,7.10
2018-08-16T11:58:37.092Z,7.60
2018-08-16T12:01:05.584Z,7.20
2018-08-16T12:03:34.090Z,7.80
2018-08-16T12:06:02.601Z,7.47
2018-08-16T12:08:31.050Z,8.43
2018-08-16T12:10:59.599Z,7.67
2018-08-16T12:13:28.172Z,7.63
2018-08-16T12:15:56.631Z,7.00
2018-08-16T12:18:25.143Z,8.23
2018-08-16T12:20:53.623Z,7.37
2018-08-16T12:23:22.147Z,7.20
2018-08-16T12:25:50.705Z,7.07
2018-08-16T12:28:20.954Z,7.57
2018-08-16T12:30:49.737Z,7.40
2018-08-16T12:33:28.567Z,6.80
2018-08-16T12:36:01.212Z,7.53
2018-08-16T12:38:36.283Z,7.37
2018-08-16T12:41:07.188Z,7.90
2018-08-16T12:43:36.709Z,7.63
2018-08-16T12:46:05.722Z,6.90
2018-08-16T12:48:35.487Z,6.87
2018-08-16T12:51:06.619Z,6.40
2018-08-16T12:53:35.078Z,7.63
2018-08-16T12:56:03.574Z,6.10
2018-08-16T12:58:36.043Z,6.90
2018-08-16T13:01:05.970Z,7.47
2018-08-16T13:03:37.881Z,6.43
2018-08-16T13:06:07.388Z,5.90
2018-08-16T13:08:38.792Z,7.13
2018-08-16T13:11:09.394Z,6.93
2018-08-16T13:13:38.926Z,7.00
2018-08-16T13:16:07.420Z,6.90
2018-08-16T13:18:35.935Z,7.27
2018-08-16T13:21:04.422Z,6.63
2018-08-16T13:23:33.852Z,7.50
2018-08-16T13:26:03.886Z,6.70
2018-08-16T13:28:32.427Z,6.83
2018-08-16T13:31:00.940Z,6.20
2018-08-16T13:33:30.596Z,6.77
2018-08-16T13:36:00.212Z,6.93
2018-08-16T13:38:28.659Z,7.20
2018-08-16T13:40:57.975Z,7.00
2018-08-16T13:43:26.445Z,6.10
2018-08-16T13:45:54.946Z,6.22
2018-08-16T13:48:23.465Z,6.28
2018-08-16T13:50:52.316Z,6.20
2018-08-16T13:53:20.789Z,6.53
2018-08-16T13:55:49.305Z,6.30
2018-08-16T13:58:17.821Z,6.87
2018-08-16T14:00:46.299Z,6.67
2018-08-16T14:03:14.836Z,6.40
2018-08-16T14:05:43.281Z,6.43
2018-08-16T14:08:12.092Z,6.45
2018-08-16T14:10:40.604Z,6.03
2018-08-16T14:13:09.169Z,5.92
2018-08-16T14:15:37.653Z,5.78
2018-08-16T14:18:06.183Z,5.12
2018-08-16T14:20:34.699Z,5.28
2018-08-16T14:23:03.203Z,5.42
2018-08-16T14:25:31.680Z,5.85
2018-08-16T14:28:00.145Z,5.42
2018-08-16T14:30:28.601Z,6.67
2018-08-16T14:32:57.109Z,5.13
2018-08-16T14:35:31.886Z,5.33
2018-08-16T14:38:00.402Z,4.83
2018-08-16T14:40:28.895Z,4.97
2018-08-16T14:42:57.691Z,4.87
2018-08-16T14:45:26.228Z,5.17
2018-08-16T14:47:54.857Z,4.80
2018-08-16T14:50:23.363Z,5.10
2018-08-16T14:52:52.199Z,5.30
2018-08-16T14:55:20.707Z,5.40
2018-08-16T14:57:49.199Z,5.57
2018-08-16T15:00:17.804Z,5.50
2018-08-16T15:02:46.304Z,5.60
2018-08-16T15:05:19.706Z,5.77
2018-08-16T15:07:50.184Z,5.40
2018-08-16T15:10:18.776Z,6.00
2018-08-16T15:12:50.183Z,6.40
2018-08-16T15:15:18.845Z,6.57
2018-08-16T15:17:47.370Z,6.53
2018-08-16T15:20:15.904Z,6.33
2018-08-16T15:22:44.463Z,6.90
2018-08-16T15:25:12.962Z,6.60
2018-08-16T15:27:41.816Z,6.87
2018-08-16T15:30:10.475Z,6.67
2018-08-16T15:32:40.811Z,6.63
2018-08-16T15:35:09.376Z,6.53
2018-08-16T15:37:38.000Z,6.50
2018-08-16T15:40:06.567Z,7.10
2018-08-16T15:42:35.026Z,6.63
2018-08-16T15:45:05.010Z,6.70
2018-08-16T15:47:33.983Z,7.30
2018-08-16T15:50:02.851Z,6.93
2018-08-16T15:52:31.353Z,7.60
2018-08-16T15:54:59.811Z,8.13
2018-08-16T15:57:28.445Z,7.87
2018-08-16T15:59:56.975Z,7.70
2018-08-16T16:02:25.686Z,7.80
2018-08-16T16:04:54.189Z,7.00
2018-08-16T16:07:22.709Z,6.93
2018-08-16T16:09:51.213Z,6.93
2018-08-16T16:12:19.766Z,7.50
2018-08-16T16:14:48.283Z,7.70
2018-08-16T16:17:16.863Z,7.23
2018-08-16T16:19:45.363Z,7.07
2018-08-16T16:22:13.906Z,7.50
2018-08-16T16:24:42.518Z,7.50
2018-08-16T16:27:11.023Z,7.00
2018-08-16T16:29:39.484Z,7.20
2018-08-16T16:32:08.038Z,6.70
2018-08-16T16:34:36.540Z,6.30
2018-08-16T16:37:05.060Z,6.17
2018-08-16T16:39:34.548Z,5.97
2018-08-16T16:42:03.124Z,6.07
2018-08-16T16:44:31.573Z,5.80
2018-08-16T16:47:00.810Z,5.73
2018-08-16T16:49:29.322Z,5.40
2018-08-16T16:51:57.828Z,4.67
2018-08-16T16:54:26.283Z,4.13
2018-08-16T16:56:54.794Z,4.40
2018-08-16T16:59:23.452Z,4.20
2018-08-16T18:57:19.540Z,4.60
2018-08-16T18:59:48.093Z,4.47
2018-08-16T19:02:16.534Z,4.97
2018-08-16T19:04:45.020Z,4.60
2018-08-16T19:07:13.532Z,5.20
2018-08-16T19:09:42.039Z,4.90
2018-08-16T19:12:10.604Z,4.40
2018-08-16T19:14:39.073Z,4.60
2018-08-16T19:17:08.338Z,4.23
2018-08-16T19:19:39.549Z,3.53
2018-08-16T19:22:08.051Z,3.87
2018-08-16T19:24:36.592Z,3.37
2018-08-16T19:27:05.359Z,3.67
2018-08-16T19:29:37.082Z,4.00
2018-08-16T19:32:05.620Z,3.80
2018-08-16T19:34:34.159Z,3.93
2018-08-16T19:37:02.732Z,4.60
2018-08-16T19:39:31.209Z,4.90
2018-08-16T19:41:59.675Z,5.37
2018-08-16T19:44:28.148Z,4.77
2018-08-16T19:46:56.649Z,5.23
2018-08-16T19:49:25.198Z,5.07
2018-08-16T19:51:53.657Z,9.17
2018-08-16T19:54:22.176Z,11.43
2018-08-16T19:56:50.709Z,10.50
2018-08-16T19:59:19.206Z,10.27
2018-08-16T20:01:47.664Z,9.40
2018-08-16T20:04:16.165Z,9.30
2018-08-16T20:06:44.672Z,9.37
2018-08-16T20:09:13.181Z,8.63
2018-08-16T20:11:41.638Z,9.43
2018-08-16T20:14:10.126Z,9.77
2018-08-16T20:16:38.665Z,10.07
2018-08-16T20:19:07.177Z,9.37
2018-08-16T20:21:35.688Z,9.33
2018-08-16T20:24:04.263Z,8.80
2018-08-16T20:26:32.837Z,9.70
2018-08-16T20:29:01.318Z,9.33
2018-08-16T20:31:30.032Z,8.57
2018-08-16T20:33:58.497Z,8.90
2018-08-16T20:36:27.005Z,8.80
2018-08-16T20:38:55.467Z,8.27
2018-08-16T20:41:23.986Z,8.47
2018-08-16T20:43:52.433Z,8.30
2018-08-16T20:46:20.893Z,9.30
2018-08-16T20:48:49.339Z,7.90
2018-08-16T20:51:17.851Z,8.00
2018-08-16T20:53:46.333Z,8.00
2018-08-16T20:56:14.951Z,7.77
2018-08-16T20:58:43.439Z,7.20
2018-08-16T21:01:11.907Z,7.73
2018-08-16T21:03:40.369Z,7.80
2018-08-16T21:06:08.913Z,8.47
2018-08-16T21:08:37.395Z,8.90
2018-08-16T21:11:06.027Z,8.40
2018-08-16T21:13:34.705Z,8.13
2018-08-16T21:16:03.142Z,9.10
2018-08-16T21:18:31.631Z,7.80
2018-08-16T21:21:00.097Z,7.37
2018-08-16T21:23:28.577Z,7.57
2018-08-16T21:25:57.106Z,7.77
2018-08-16T21:28:25.578Z,7.13
2018-08-16T21:30:54.077Z,6.80
2018-08-16T21:33:22.558Z,7.37
2018-08-16T21:35:51.010Z,7.83
2018-08-16T21:38:19.543Z,7.73
2018-08-16T21:40:47.984Z,7.77
2018-08-16T21:43:16.472Z,7.97
2018-08-16T21:45:44.918Z,7.67
2018-08-16T21:48:13.352Z,7.73
2018-08-16T21:50:41.801Z,8.27
2018-08-16T21:53:10.248Z,7.33
2018-08-16T21:55:38.688Z,8.20
2018-08-16T21:58:07.122Z,8.33
2018-08-16T22:00:47.444Z,8.57
2018-08-16T22:03:17.407Z,8.90
2018-08-16T22:05:52.544Z,8.20
2018-08-16T22:08:20.990Z,8.67
2018-08-16T22:10:49.527Z,8.10
2018-08-16T22:13:17.992Z,8.83
2018-08-16T22:15:46.465Z,9.30
2018-08-16T22:18:14.918Z,9.33
2018-08-16T22:20:43.392Z,8.73
2018-08-16T22:23:11.886Z,9.03
2018-08-16T22:25:40.387Z,9.90
2018-08-16T22:28:08.846Z,9.27
2018-08-16T22:30:37.313Z,9.43
2018-08-16T22:33:05.774Z,8.90
2018-08-16T22:35:34.245Z,9.93
2018-08-16T22:38:02.707Z,10.10
2018-08-16T22:40:31.151Z,10.63
2018-08-16T22:42:59.641Z,10.87
2018-08-16T22:45:28.117Z,9.70
2018-08-16T22:47:56.682Z,9.70
2018-08-16T22:50:25.206Z,10.43
2018-08-16T22:52:53.642Z,10.90
2018-08-16T22:55:22.109Z,6.23
2018-08-16T22:57:50.551Z,8.10
2018-08-16T23:00:18.998Z,7.60
2018-08-16T23:02:47.474Z,8.23
2018-08-16T23:05:16.033Z,6.93
2018-08-16T23:07:44.508Z,7.10
2018-08-16T23:10:12.978Z,4.30
2018-08-16T23:12:41.463Z,4.60
2018-08-16T23:15:09.943Z,4.37
2018-08-16T23:17:38.463Z,4.07
2018-08-16T23:20:07.703Z,5.17
2018-08-16T23:22:36.247Z,5.00
2018-08-16T23:25:04.959Z,4.70
2018-08-16T23:27:33.404Z,5.03
2018-08-16T23:30:01.837Z,5.30
2018-08-16T23:32:30.282Z,5.20
2018-08-16T23:34:58.741Z,5.57
2018-08-16T23:37:27.198Z,5.10
2018-08-16T23:39:55.662Z,5.33
2018-08-16T23:42:24.102Z,5.10
2018-08-16T23:44:52.540Z,6.57
2018-08-16T23:47:23.488Z,7.20
2018-08-16T23:49:51.993Z,7.90
2018-08-16T23:52:20.638Z,7.50
2018-08-16T23:54:49.287Z,8.13
2018-08-16T23:57:17.821Z,7.50
2018-08-16T23:59:46.320Z,8.37
